Pagina principale
METAR-TAF:

METAR-TAF

Aeroporti :

Grenchen, Svizzera

latitudine: 47-10-53N, longitudine: 007-24-59E, altezza: 430 m

Osservazione

Il bollettino è stato emesso 19 minuti fa, alle 14:20 UTC
Vento 6 kt da sud-ovest
Temperature 12°C
Umidità 44%
Pressione 1020 hPa
Visibilità 10 km o più
nessuna nube inferiore a 1500 m e nessun cumulonembo

METAR: LSZG 181420Z 22006KT CAVOK 12/00 Q1020 NOSIG

Ora: 15:39 (14:39 UTC)

Previsione

Il bollettino è stato emesso 14 minuti fa, alle 14:25 UTC
Previsione valida dal 18 alle 15 UTC al 18 alle 24 UTC
Vento 6 kt da sud/sud-ovest
Visibilità 10 km o più
nessuna nube inferiore a 1500 m e nessun cumulonembo
Evoluzione graduale
dal 18 alle 21 UTC al 18 alle 24 UTC
Visibilità: 7000 m

TAF: LSZG 181425Z 1815/1824 21006KT CAVOK BECMG 1821/1824 7000 NSC

Osservazioni e previsioni meteorologiche di più di 4000 aeroporti (messaggi METAR e TAF).

Le stazioni disponibili sono rappresentate dai dischi gialli e rossi sulla carta.

Puntare il mouse per vedere il nome della stazione.

Clicca sopra per visualizzare le osservazioni e previsioni meteorologiche.

Per cambiare la mappa : fare clic sui pulsanti verdi con una croce nera per ingrandire, il pulsante verde con un trattino per diminuire, o sulla freccia verde per le mappe adiacenti.


METAR-TAF: